PWSweather.com
Personal Weather Stations
Station Observations
IMAZOWIE6
WarszawaPL

WarszawaPL

Lat: 52.27957, Lon: 21.05489

Elevation: 100

Station Type: WS1080

http://stacjapogody.waw.pl/

High Low Average
Temperature 38.7°F3.7°C 31.1°F-0.5°C 34.6°F1.4°C
Dew Point 2.6°F-16.3°C -169.7°F-112.1°C -98.7°F-72.6°C
Winds 4.0 mph 6.4 kmh Calm Calm 1.0 mph N1.6 kmh N
Wind Gusts 6.8 mph10.9 kmh -- 3.0 mph4.8 kmh
Humidity 22% 10% 16%
Pressure 30.04 in1017.3 mb 29.71 in1006.1 mb -
Precipitation 0.00 in0.0 mm - -
Hour Temp Dew Point Humidity Winds Wind Gusts Pressure Precip Precip Rate Daily Precip Total
12:01 AM 33.6°F0.9°C -169.4°F-111.9°C - Calm Calm -- 30.04 in1017.3 mb 0.00 in0.0 mm 0.00 in0.0 mm 0.00 in0.0 mm
12:16 AM 33.6°F0.9°C -169.4°F-111.9°C - Calm Calm 0.6 mph1.0 kmh 30.04 in1017.3 mb 0.00 in0.0 mm 0.00 in0.0 mm 0.00 in0.0 mm
12:31 AM 33.6°F0.9°C -169.4°F-111.9°C - Calm Calm -- 30.03 in1016.9 mb 0.00 in0.0 mm 0.00 in0.0 mm 0.00 in0.0 mm
12:46 AM 33.4°F0.8°C -169.5°F-111.9°C - Calm Calm -- 30.03 in1016.9 mb 0.00 in0.0 mm 0.00 in0.0 mm 0.00 in0.0 mm
01:01 AM 33.6°F0.9°C -169.4°F-111.9°C - Calm Calm -- 30.02 in1016.6 mb 0.00 in0.0 mm 0.00 in0.0 mm 0.00 in0.0 mm
01:16 AM 33.6°F0.9°C -169.4°F-111.9°C - Calm Calm -- 30.02 in1016.6 mb 0.00 in0.0 mm 0.00 in0.0 mm 0.00 in0.0 mm
01:31 AM 33.6°F0.9°C -169.4°F-111.9°C - Calm Calm -- 30.02 in1016.6 mb 0.00 in0.0 mm 0.00 in0.0 mm 0.00 in0.0 mm
01:46 AM 34.2°F1.2°C -169.4°F-111.9°C - 1.4 mph N2.3 kmh N 2.0 mph3.2 kmh 30.02 in1016.6 mb 0.00 in0.0 mm 0.00 in0.0 mm 0.00 in0.0 mm
02:01 AM 34.0°F1.1°C -169.4°F-111.9°C - 1.4 mph N2.3 kmh N 2.0 mph3.2 kmh 30.02 in1016.6 mb 0.00 in0.0 mm 0.00 in0.0 mm 0.00 in0.0 mm
02:16 AM 33.8°F1.0°C -169.4°F-111.9°C - 0.6 mph N1.0 kmh N 2.8 mph4.5 kmh 30.02 in1016.6 mb 0.00 in0.0 mm 0.00 in0.0 mm 0.00 in0.0 mm
02:31 AM 33.6°F0.9°C -169.4°F-111.9°C - 0.6 mph N1.0 kmh N 2.8 mph4.5 kmh 30.02 in1016.6 mb 0.00 in0.0 mm 0.00 in0.0 mm 0.00 in0.0 mm
02:46 AM 33.3°F0.7°C -169.5°F-111.9°C - 0.6 mph N1.0 kmh N 3.4 mph5.5 kmh 30.01 in1016.3 mb 0.00 in0.0 mm 0.00 in0.0 mm 0.00 in0.0 mm
03:01 AM 32.9°F0.5°C -169.5°F-111.9°C - 1.4 mph N2.3 kmh N 3.4 mph5.5 kmh 30.01 in1016.3 mb 0.00 in0.0 mm 0.00 in0.0 mm 0.00 in0.0 mm
04:16 AM 32.2°F0.1°C -169.6°F-112.0°C - 2.0 mph N3.2 kmh N 3.4 mph5.5 kmh 29.99 in1015.6 mb 0.00 in0.0 mm 0.00 in0.0 mm 0.00 in0.0 mm
04:31 AM 32.0°F0.0°C -169.6°F-112.0°C - 0.6 mph N1.0 kmh N 2.8 mph4.5 kmh 29.99 in1015.6 mb 0.00 in0.0 mm 0.00 in0.0 mm 0.00 in0.0 mm
04:46 AM 31.8°F-0.1°C -169.6°F-112.0°C - 0.6 mph N1.0 kmh N 2.0 mph3.2 kmh 29.99 in1015.6 mb 0.00 in0.0 mm 0.00 in0.0 mm 0.00 in0.0 mm
05:01 AM 31.8°F-0.1°C -169.6°F-112.0°C - 1.4 mph N2.3 kmh N 3.4 mph5.5 kmh 29.99 in1015.6 mb 0.00 in0.0 mm 0.00 in0.0 mm 0.00 in0.0 mm
05:16 AM 32.0°F0.0°C -169.6°F-112.0°C - Calm Calm 2.0 mph3.2 kmh 29.99 in1015.6 mb 0.00 in0.0 mm 0.00 in0.0 mm 0.00 in0.0 mm
05:31 AM 31.5°F-0.3°C -169.7°F-112.1°C - 1.4 mph N2.3 kmh N 3.4 mph5.5 kmh 29.98 in1015.2 mb 0.00 in0.0 mm 0.00 in0.0 mm 0.00 in0.0 mm
05:46 AM 31.1°F-0.5°C -169.7°F-112.1°C - 0.6 mph N1.0 kmh N 1.4 mph2.3 kmh 29.97 in1014.9 mb 0.00 in0.0 mm 0.00 in0.0 mm 0.00 in0.0 mm
06:01 AM 31.3°F-0.4°C -169.7°F-112.1°C - 1.4 mph N2.3 kmh N 3.4 mph5.5 kmh 29.96 in1014.6 mb 0.00 in0.0 mm 0.00 in0.0 mm 0.00 in0.0 mm
06:16 AM 31.1°F-0.5°C -169.7°F-112.1°C - 1.4 mph N2.3 kmh N 3.4 mph5.5 kmh 29.96 in1014.6 mb 0.00 in0.0 mm 0.00 in0.0 mm 0.00 in0.0 mm
06:31 AM 31.3°F-0.4°C -169.7°F-112.1°C - 0.6 mph N1.0 kmh N 3.4 mph5.5 kmh 29.96 in1014.6 mb 0.00 in0.0 mm 0.00 in0.0 mm 0.00 in0.0 mm
06:46 AM 31.5°F-0.3°C -169.7°F-112.1°C - 2.0 mph N3.2 kmh N 3.4 mph5.5 kmh 29.95 in1014.2 mb 0.00 in0.0 mm 0.00 in0.0 mm 0.00 in0.0 mm
07:01 AM 31.6°F-0.2°C -169.6°F-112.0°C - 1.4 mph N2.3 kmh N 3.4 mph5.5 kmh 29.94 in1013.9 mb 0.00 in0.0 mm 0.00 in0.0 mm 0.00 in0.0 mm
07:16 AM 31.6°F-0.2°C -169.6°F-112.0°C - 1.4 mph N2.3 kmh N 3.4 mph5.5 kmh 29.94 in1013.9 mb 0.00 in0.0 mm 0.00 in0.0 mm 0.00 in0.0 mm
07:31 AM 31.6°F-0.2°C -169.6°F-112.0°C - 0.6 mph N1.0 kmh N 2.8 mph4.5 kmh 29.94 in1013.9 mb 0.00 in0.0 mm 0.00 in0.0 mm 0.00 in0.0 mm
07:46 AM 31.8°F-0.1°C -18.6°F-28.1°C 10% 1.4 mph N2.3 kmh N 2.8 mph4.5 kmh 29.94 in1013.9 mb 0.00 in0.0 mm 0.00 in0.0 mm 0.00 in0.0 mm
08:01 AM 32.0°F0.0°C -18.4°F-28.0°C 10% 2.0 mph N3.2 kmh N 4.8 mph7.7 kmh 29.93 in1013.5 mb 0.00 in0.0 mm 0.00 in0.0 mm 0.00 in0.0 mm
08:16 AM 31.8°F-0.1°C -18.6°F-28.1°C 10% 2.0 mph N3.2 kmh N 4.8 mph7.7 kmh 29.93 in1013.5 mb 0.00 in0.0 mm 0.00 in0.0 mm 0.00 in0.0 mm
08:31 AM 31.8°F-0.1°C -18.6°F-28.1°C 10% 1.4 mph N2.3 kmh N 3.4 mph5.5 kmh 29.92 in1013.2 mb 0.00 in0.0 mm 0.00 in0.0 mm 0.00 in0.0 mm
08:46 AM 32.2°F0.1°C -18.3°F-27.9°C 10% 1.4 mph N2.3 kmh N 2.8 mph4.5 kmh 29.92 in1013.2 mb 0.00 in0.0 mm 0.00 in0.0 mm 0.00 in0.0 mm
09:01 AM 32.4°F0.2°C -18.1°F-27.8°C 10% 1.4 mph N2.3 kmh N 3.4 mph5.5 kmh 29.91 in1012.9 mb 0.00 in0.0 mm 0.00 in0.0 mm 0.00 in0.0 mm
09:16 AM 32.5°F0.3°C -18.0°F-27.8°C 10% 2.8 mph N4.5 kmh N 6.2 mph10.0 kmh 29.91 in1012.9 mb 0.00 in0.0 mm 0.00 in0.0 mm 0.00 in0.0 mm
09:31 AM 32.5°F0.3°C -18.0°F-27.8°C 10% 3.4 mph N5.5 kmh N 6.2 mph10.0 kmh 29.91 in1012.9 mb 0.00 in0.0 mm 0.00 in0.0 mm 0.00 in0.0 mm
09:46 AM 32.5°F0.3°C -169.5°F-111.9°C - 2.0 mph N3.2 kmh N 3.4 mph5.5 kmh 29.90 in1012.5 mb 0.00 in0.0 mm 0.00 in0.0 mm 0.00 in0.0 mm
10:01 AM 32.7°F0.4°C -169.5°F-111.9°C - 2.0 mph N3.2 kmh N 4.8 mph7.7 kmh 29.90 in1012.5 mb 0.00 in0.0 mm 0.00 in0.0 mm 0.00 in0.0 mm
10:16 AM 33.1°F0.6°C -169.5°F-111.9°C - 3.4 mph N5.5 kmh N 6.2 mph10.0 kmh 29.89 in1012.2 mb 0.00 in0.0 mm 0.00 in0.0 mm 0.00 in0.0 mm
10:31 AM 33.3°F0.7°C -169.5°F-111.9°C - 2.8 mph N4.5 kmh N 4.0 mph6.4 kmh 29.87 in1011.5 mb 0.00 in0.0 mm 0.00 in0.0 mm 0.00 in0.0 mm
10:46 AM 33.4°F0.8°C -169.5°F-111.9°C - 3.4 mph N5.5 kmh N 6.2 mph10.0 kmh 29.86 in1011.2 mb 0.00 in0.0 mm 0.00 in0.0 mm 0.00 in0.0 mm
11:01 AM 33.6°F0.9°C -169.4°F-111.9°C - 2.0 mph N3.2 kmh N 4.8 mph7.7 kmh 29.85 in1010.8 mb 0.00 in0.0 mm 0.00 in0.0 mm 0.00 in0.0 mm
11:16 AM 33.6°F0.9°C -169.4°F-111.9°C - 4.0 mph N6.4 kmh N 6.8 mph10.9 kmh 29.84 in1010.5 mb 0.00 in0.0 mm 0.00 in0.0 mm 0.00 in0.0 mm
11:31 AM 33.8°F1.0°C -169.4°F-111.9°C - 2.0 mph N3.2 kmh N 4.0 mph6.4 kmh 29.83 in1010.2 mb 0.00 in0.0 mm 0.00 in0.0 mm 0.00 in0.0 mm
11:46 AM 34.0°F1.1°C -169.4°F-111.9°C - 2.8 mph N4.5 kmh N 6.2 mph10.0 kmh 29.82 in1009.8 mb 0.00 in0.0 mm 0.00 in0.0 mm 0.00 in0.0 mm
12:01 PM 33.8°F1.0°C -169.4°F-111.9°C - 2.0 mph N3.2 kmh N 4.8 mph7.7 kmh 29.81 in1009.5 mb 0.00 in0.0 mm 0.00 in0.0 mm 0.00 in0.0 mm
12:16 PM 34.2°F1.2°C -169.4°F-111.9°C - 2.0 mph N3.2 kmh N 4.0 mph6.4 kmh 29.81 in1009.5 mb 0.00 in0.0 mm 0.00 in0.0 mm 0.00 in0.0 mm
12:31 PM 34.2°F1.2°C -169.4°F-111.9°C - 2.0 mph N3.2 kmh N 4.0 mph6.4 kmh 29.80 in1009.1 mb 0.00 in0.0 mm 0.00 in0.0 mm 0.00 in0.0 mm
12:46 PM 34.3°F1.3°C -169.4°F-111.9°C - 2.0 mph N3.2 kmh N 3.4 mph5.5 kmh 29.79 in1008.8 mb 0.00 in0.0 mm 0.00 in0.0 mm 0.00 in0.0 mm
01:01 PM 34.5°F1.4°C -169.3°F-111.8°C - 3.4 mph N5.5 kmh N 6.2 mph10.0 kmh 29.78 in1008.5 mb 0.00 in0.0 mm 0.00 in0.0 mm 0.00 in0.0 mm
01:16 PM 34.7°F1.5°C -169.3°F-111.8°C - 0.6 mph N1.0 kmh N 2.0 mph3.2 kmh 29.78 in1008.5 mb 0.00 in0.0 mm 0.00 in0.0 mm 0.00 in0.0 mm
01:31 PM 34.7°F1.5°C -169.3°F-111.8°C - 2.8 mph N4.5 kmh N 5.4 mph8.7 kmh 29.77 in1008.1 mb 0.00 in0.0 mm 0.00 in0.0 mm 0.00 in0.0 mm
01:46 PM 34.7°F1.5°C -169.3°F-111.8°C - 2.0 mph N3.2 kmh N 4.0 mph6.4 kmh 29.76 in1007.8 mb 0.00 in0.0 mm 0.00 in0.0 mm 0.00 in0.0 mm
02:01 PM 34.7°F1.5°C -169.3°F-111.8°C - 1.4 mph N2.3 kmh N 4.0 mph6.4 kmh 29.76 in1007.8 mb 0.00 in0.0 mm 0.00 in0.0 mm 0.00 in0.0 mm
02:16 PM 34.7°F1.5°C -169.3°F-111.8°C - 1.4 mph N2.3 kmh N 2.8 mph4.5 kmh 29.75 in1007.5 mb 0.00 in0.0 mm 0.00 in0.0 mm 0.00 in0.0 mm
02:31 PM 35.1°F1.7°C -169.3°F-111.8°C - 2.0 mph N3.2 kmh N 4.0 mph6.4 kmh 29.74 in1007.1 mb 0.00 in0.0 mm 0.00 in0.0 mm 0.00 in0.0 mm
02:46 PM 34.9°F1.6°C -169.3°F-111.8°C - 2.0 mph N3.2 kmh N 4.0 mph6.4 kmh 29.74 in1007.1 mb 0.00 in0.0 mm 0.00 in0.0 mm 0.00 in0.0 mm
03:01 PM 35.2°F1.8°C -169.3°F-111.8°C - 2.8 mph N4.5 kmh N 4.8 mph7.7 kmh 29.73 in1006.8 mb 0.01 in0.3 mm 0.02 in0.5 mm 0.01 in0.3 mm
03:16 PM 35.4°F1.9°C -169.3°F-111.8°C - 2.8 mph N4.5 kmh N 5.4 mph8.7 kmh 29.73 in1006.8 mb 0.00 in0.0 mm 0.00 in0.0 mm 0.01 in0.3 mm
03:31 PM 35.2°F1.8°C -169.3°F-111.8°C - 1.4 mph N2.3 kmh N 4.8 mph7.7 kmh 29.73 in1006.8 mb 0.00 in0.0 mm 0.00 in0.0 mm 0.01 in0.3 mm
03:46 PM 35.4°F1.9°C -169.3°F-111.8°C - 1.4 mph N2.3 kmh N 4.0 mph6.4 kmh 29.72 in1006.4 mb 0.00 in0.0 mm 0.00 in0.0 mm 0.01 in0.3 mm
04:01 PM 35.4°F1.9°C -15.8°F-26.6°C 10% 2.0 mph N3.2 kmh N 4.0 mph6.4 kmh 29.71 in1006.1 mb 0.00 in0.0 mm 0.00 in0.0 mm 0.01 in0.3 mm
04:16 PM 35.6°F2.0°C -15.6°F-26.4°C 10% 1.4 mph N2.3 kmh N 2.8 mph4.5 kmh 29.72 in1006.4 mb 0.00 in0.0 mm 0.00 in0.0 mm 0.01 in0.3 mm
04:31 PM 35.6°F2.0°C -13.8°F-25.4°C 11% 1.4 mph N2.3 kmh N 2.8 mph4.5 kmh 29.71 in1006.1 mb 0.00 in0.0 mm 0.00 in0.0 mm 0.01 in0.3 mm
04:46 PM 35.6°F2.0°C -13.8°F-25.4°C 11% 0.6 mph N1.0 kmh N 2.0 mph3.2 kmh 29.71 in1006.1 mb 0.00 in0.0 mm 0.00 in0.0 mm 0.01 in0.3 mm
05:01 PM 35.8°F2.1°C -11.9°F-24.4°C 12% 1.4 mph N2.3 kmh N 4.0 mph6.4 kmh 29.71 in1006.1 mb 0.00 in0.0 mm 0.00 in0.0 mm 0.01 in0.3 mm
05:16 PM 36.0°F2.2°C -10.2°F-23.4°C 13% 0.6 mph N1.0 kmh N 2.0 mph3.2 kmh 29.71 in1006.1 mb 0.01 in0.3 mm 0.05 in1.3 mm 0.02 in0.5 mm
05:31 PM 36.0°F2.2°C -10.2°F-23.4°C 13% 0.6 mph N1.0 kmh N 2.0 mph3.2 kmh 29.71 in1006.1 mb 0.01 in0.3 mm 0.00 in0.0 mm 0.02 in0.5 mm
05:46 PM 36.0°F2.2°C -8.7°F-22.6°C 14% 0.6 mph N1.0 kmh N 1.4 mph2.3 kmh 29.71 in1006.1 mb 0.01 in0.3 mm 0.00 in0.0 mm 0.02 in0.5 mm
06:01 PM 36.3°F2.4°C -8.5°F-22.5°C 14% 0.6 mph N1.0 kmh N 2.8 mph4.5 kmh 29.71 in1006.1 mb 0.01 in0.3 mm 0.00 in0.0 mm 0.02 in0.5 mm
06:16 PM 36.5°F2.5°C -6.9°F-21.6°C 15% 0.6 mph N1.0 kmh N 2.0 mph3.2 kmh 29.72 in1006.4 mb 0.00 in0.0 mm 0.00 in0.0 mm 0.02 in0.5 mm
06:31 PM 36.7°F2.6°C -6.8°F-21.6°C 15% Calm Calm 1.4 mph2.3 kmh 29.71 in1006.1 mb 0.00 in0.0 mm 0.00 in0.0 mm 0.02 in0.5 mm
06:46 PM 36.9°F2.7°C -5.3°F-20.7°C 16% Calm Calm 0.6 mph1.0 kmh 29.71 in1006.1 mb 0.00 in0.0 mm 0.00 in0.0 mm 0.02 in0.5 mm
07:01 PM 37.0°F2.8°C -5.2°F-20.7°C 16% Calm Calm -- 29.72 in1006.4 mb 0.00 in0.0 mm 0.00 in0.0 mm 0.02 in0.5 mm
07:16 PM 37.0°F2.8°C -3.9°F-19.9°C 17% Calm Calm 2.0 mph3.2 kmh 29.72 in1006.4 mb 0.00 in0.0 mm 0.00 in0.0 mm 0.02 in0.5 mm
07:31 PM 37.4°F3.0°C -3.6°F-19.8°C 17% Calm Calm -- 29.72 in1006.4 mb 0.00 in0.0 mm 0.00 in0.0 mm 0.02 in0.5 mm
07:46 PM 37.6°F3.1°C -2.3°F-19.1°C 18% Calm Calm 0.6 mph1.0 kmh 29.72 in1006.4 mb 0.00 in0.0 mm 0.00 in0.0 mm 0.02 in0.5 mm
08:01 PM 37.8°F3.2°C -2.1°F-18.9°C 18% Calm Calm 2.0 mph3.2 kmh 29.72 in1006.4 mb 0.00 in0.0 mm 0.00 in0.0 mm 0.02 in0.5 mm
08:16 PM 37.9°F3.3°C -0.9°F-18.3°C 19% Calm Calm 1.4 mph2.3 kmh 29.73 in1006.8 mb 0.00 in0.0 mm 0.00 in0.0 mm 0.02 in0.5 mm
08:31 PM 38.1°F3.4°C -0.7°F-18.2°C 19% Calm Calm 0.6 mph1.0 kmh 29.73 in1006.8 mb 0.00 in0.0 mm 0.00 in0.0 mm 0.02 in0.5 mm
08:46 PM 38.1°F3.4°C 0.4°F-17.6°C 20% Calm Calm 1.4 mph2.3 kmh 29.73 in1006.8 mb 0.00 in0.0 mm 0.00 in0.0 mm 0.02 in0.5 mm
09:01 PM 38.3°F3.5°C 0.5°F-17.5°C 20% Calm Calm -- 29.73 in1006.8 mb 0.00 in0.0 mm 0.00 in0.0 mm 0.02 in0.5 mm
09:16 PM 38.3°F3.5°C 0.5°F-17.5°C 20% Calm Calm 1.4 mph2.3 kmh 29.73 in1006.8 mb 0.00 in0.0 mm 0.00 in0.0 mm 0.02 in0.5 mm
09:31 PM 38.7°F3.7°C 1.9°F-16.7°C 21% Calm Calm 2.0 mph3.2 kmh 29.74 in1007.1 mb 0.00 in0.0 mm 0.00 in0.0 mm 0.02 in0.5 mm
09:46 PM 38.3°F3.5°C 1.6°F-16.9°C 21% Calm Calm 1.4 mph2.3 kmh 29.75 in1007.5 mb 0.00 in0.0 mm 0.00 in0.0 mm 0.02 in0.5 mm
10:01 PM 38.3°F3.5°C 1.6°F-16.9°C 21% Calm Calm 0.6 mph1.0 kmh 29.75 in1007.5 mb 0.00 in0.0 mm 0.00 in0.0 mm 0.02 in0.5 mm
10:16 PM 38.3°F3.5°C 1.6°F-16.9°C 21% Calm Calm 1.4 mph2.3 kmh 29.76 in1007.8 mb 0.00 in0.0 mm 0.00 in0.0 mm 0.02 in0.5 mm
10:31 PM 38.3°F3.5°C 2.6°F-16.3°C 22% Calm Calm 2.0 mph3.2 kmh 29.76 in1007.8 mb 0.00 in0.0 mm 0.00 in0.0 mm 0.02 in0.5 mm
10:46 PM 38.3°F3.5°C 2.6°F-16.3°C 22% Calm Calm 0.6 mph1.0 kmh 29.77 in1008.1 mb 0.00 in0.0 mm 0.00 in0.0 mm 0.02 in0.5 mm
11:01 PM 38.1°F3.4°C 2.4°F-16.4°C 22% Calm Calm -- 29.77 in1008.1 mb 0.00 in0.0 mm 0.00 in0.0 mm 0.02 in0.5 mm
11:16 PM 38.3°F3.5°C 2.6°F-16.3°C 22% Calm Calm 0.6 mph1.0 kmh 29.77 in1008.1 mb 0.00 in0.0 mm 0.00 in0.0 mm 0.02 in0.5 mm
11:31 PM 38.1°F3.4°C 2.4°F-16.4°C 22% Calm Calm 0.6 mph1.0 kmh 29.77 in1008.1 mb 0.00 in0.0 mm 0.00 in0.0 mm 0.02 in0.5 mm
11:46 PM 38.1°F3.4°C 2.4°F-16.4°C 22% Calm Calm -- 29.77 in1008.1 mb 0.00 in0.0 mm 0.00 in0.0 mm 0.02 in0.5 mm